sensor_id;sensor_type;location;lat;lon;timestamp;pressure;altitude;pressure_sealevel;temperature;humidity
13027;BME280;6580;42.680;23.324;2023-04-08T00:01:07;95357.44;;;7.32;73.33
13027;BME280;6580;42.680;23.324;2023-04-08T00:18:28;95355.25;;;7.37;71.33
13027;BME280;6580;42.680;23.324;2023-04-08T00:21:14;95361.91;;;7.22;72.80
13027;BME280;6580;42.680;23.324;2023-04-08T00:24:23;95330.94;;;7.23;71.39
13027;BME280;6580;42.680;23.324;2023-04-08T00:27:24;95354.47;;;7.16;73.53
13027;BME280;6580;42.680;23.324;2023-04-08T00:30:23;95355.19;;;7.18;76.37
13027;BME280;6580;42.680;23.324;2023-04-08T00:33:15;95348.06;;;7.09;78.10
13027;BME280;6580;42.680;23.324;2023-04-08T00:36:06;95360.47;;;7.18;78.51
13027;BME280;6580;42.680;23.324;2023-04-08T00:39:08;95357.41;;;7.23;75.91
13027;BME280;6580;42.680;23.324;2023-04-08T00:42:08;95356.03;;;7.28;76.30
13027;BME280;6580;42.680;23.324;2023-04-08T00:45:30;95359.09;;;7.24;76.65
13027;BME280;6580;42.680;23.324;2023-04-08T00:48:32;95363.56;;;7.23;76.77
13027;BME280;6580;42.680;23.324;2023-04-08T00:51:21;95358.50;;;7.11;77.08
13027;BME280;6580;42.680;23.324;2023-04-08T00:54:06;95357.53;;;7.12;76.25
13027;BME280;6580;42.680;23.324;2023-04-08T00:56:51;95364.09;;;7.17;76.32
13027;BME280;6580;42.680;23.324;2023-04-08T00:59:37;95358.91;;;7.06;77.26
13027;BME280;6580;42.680;23.324;2023-04-08T01:02:27;95368.94;;;7.12;77.57
13027;BME280;6580;42.680;23.324;2023-04-08T01:05:21;95376.06;;;7.12;78.00
13027;BME280;6580;42.680;23.324;2023-04-08T01:08:10;95374.22;;;7.03;78.27
13027;BME280;6580;42.680;23.324;2023-04-08T01:10:58;95376.28;;;7.00;79.08
13027;BME280;6580;42.680;23.324;2023-04-08T01:13:45;95372.06;;;6.88;79.35
13027;BME280;6580;42.680;23.324;2023-04-08T01:16:34;95380.28;;;6.85;80.51
13027;BME280;6580;42.680;23.324;2023-04-08T01:19:25;95378.59;;;6.84;79.77
13027;BME280;6580;42.680;23.324;2023-04-08T01:22:18;95378.13;;;6.79;80.77
13027;BME280;6580;42.680;23.324;2023-04-08T01:25:14;95381.41;;;6.21;84.58
13027;BME280;6580;42.680;23.324;2023-04-08T01:28:06;95366.75;;;5.97;86.13
13027;BME280;6580;42.680;23.324;2023-04-08T01:30:56;95377.38;;;6.06;87.45
13027;BME280;6580;42.680;23.324;2023-04-08T01:33:42;95378.69;;;6.11;86.05
13027;BME280;6580;42.680;23.324;2023-04-08T01:36:29;95380.50;;;6.11;86.82
13027;BME280;6580;42.680;23.324;2023-04-08T01:39:20;95376.84;;;6.43;84.83
13027;BME280;6580;42.680;23.324;2023-04-08T01:42:10;95383.16;;;6.52;83.80
13027;BME280;6580;42.680;23.324;2023-04-08T01:44:59;95368.63;;;6.67;82.64
13027;BME280;6580;42.680;23.324;2023-04-08T01:47:48;95378.09;;;6.69;82.05
13027;BME280;6580;42.680;23.324;2023-04-08T01:50:36;95379.31;;;6.65;82.56
13027;BME280;6580;42.680;23.324;2023-04-08T01:53:24;95382.97;;;6.74;81.97
13027;BME280;6580;42.680;23.324;2023-04-08T01:56:12;95383.69;;;6.76;80.61
13027;BME280;6580;42.680;23.324;2023-04-08T01:59:00;95381.38;;;6.82;80.58
13027;BME280;6580;42.680;23.324;2023-04-08T02:01:50;95376.56;;;6.97;77.84
13027;BME280;6580;42.680;23.324;2023-04-08T02:04:36;95390.06;;;6.94;76.85
13027;BME280;6580;42.680;23.324;2023-04-08T02:07:22;95396.59;;;6.90;78.76
13027;BME280;6580;42.680;23.324;2023-04-08T02:10:09;95395.03;;;7.07;78.01
13027;BME280;6580;42.680;23.324;2023-04-08T02:12:55;95398.44;;;6.99;77.64
13027;BME280;6580;42.680;23.324;2023-04-08T02:15:45;95405.22;;;6.92;78.55
13027;BME280;6580;42.680;23.324;2023-04-08T02:18:36;95403.59;;;6.91;79.74
13027;BME280;6580;42.680;23.324;2023-04-08T02:21:26;95402.00;;;6.88;79.59
13027;BME280;6580;42.680;23.324;2023-04-08T02:24:16;95403.84;;;6.88;80.69
13027;BME280;6580;42.680;23.324;2023-04-08T02:27:03;95405.22;;;6.92;79.84
13027;BME280;6580;42.680;23.324;2023-04-08T02:29:49;95398.84;;;6.94;79.50
13027;BME280;6580;42.680;23.324;2023-04-08T02:32:35;95410.97;;;6.97;80.01
13027;BME280;6580;42.680;23.324;2023-04-08T02:35:22;95405.69;;;6.97;81.10
13027;BME280;6580;42.680;23.324;2023-04-08T02:38:08;95395.50;;;6.92;81.62
13027;BME280;6580;42.680;23.324;2023-04-08T02:40:55;95400.22;;;6.89;83.54
13027;BME280;6580;42.680;23.324;2023-04-08T02:43:40;95401.75;;;6.91;82.34
13027;BME280;6580;42.680;23.324;2023-04-08T02:46:26;95396.50;;;6.71;83.28
13027;BME280;6580;42.680;23.324;2023-04-08T02:49:11;95405.09;;;6.63;83.54
13027;BME280;6580;42.680;23.324;2023-04-08T02:51:58;95404.25;;;6.63;83.11
13027;BME280;6580;42.680;23.324;2023-04-08T02:54:44;95404.63;;;6.58;82.75
13027;BME280;6580;42.680;23.324;2023-04-08T02:57:29;95398.81;;;6.44;84.79
13027;BME280;6580;42.680;23.324;2023-04-08T03:00:15;95398.63;;;6.56;84.69
13027;BME280;6580;42.680;23.324;2023-04-08T03:03:00;95409.28;;;6.66;84.07
13027;BME280;6580;42.680;23.324;2023-04-08T03:05:46;95419.28;;;6.83;83.10
13027;BME280;6580;42.680;23.324;2023-04-08T03:08:33;95413.03;;;6.63;84.07
13027;BME280;6580;42.680;23.324;2023-04-08T03:11:18;95416.94;;;6.48;85.61
13027;BME280;6580;42.680;23.324;2023-04-08T03:14:04;95407.63;;;6.44;86.49
13027;BME280;6580;42.680;23.324;2023-04-08T03:16:50;95407.66;;;6.33;88.48
13027;BME280;6580;42.680;23.324;2023-04-08T03:19:35;95403.63;;;6.50;87.60
13027;BME280;6580;42.680;23.324;2023-04-08T03:22:20;95396.63;;;6.49;87.88
13027;BME280;6580;42.680;23.324;2023-04-08T03:25:09;95398.13;;;6.62;87.89
13027;BME280;6580;42.680;23.324;2023-04-08T03:27:54;95400.53;;;6.75;86.89
13027;BME280;6580;42.680;23.324;2023-04-08T03:30:39;95403.13;;;6.65;86.55
13027;BME280;6580;42.680;23.324;2023-04-08T03:33:25;95411.53;;;6.50;88.24
13027;BME280;6580;42.680;23.324;2023-04-08T03:36:12;95413.34;;;6.70;87.08
13027;BME280;6580;42.680;23.324;2023-04-08T03:38:57;95414.19;;;6.50;87.23
13027;BME280;6580;42.680;23.324;2023-04-08T03:41:44;95414.94;;;6.41;89.31
13027;BME280;6580;42.680;23.324;2023-04-08T03:44:30;95413.41;;;6.38;88.57
13027;BME280;6580;42.680;23.324;2023-04-08T03:47:15;95408.38;;;6.56;87.93
13027;BME280;6580;42.680;23.324;2023-04-08T03:50:03;95415.88;;;6.51;87.92
13027;BME280;6580;42.680;23.324;2023-04-08T03:52:48;95414.13;;;6.61;88.58
13027;BME280;6580;42.680;23.324;2023-04-08T03:55:34;95409.06;;;6.58;89.48
13027;BME280;6580;42.680;23.324;2023-04-08T03:58:21;95404.44;;;6.50;90.09
13027;BME280;6580;42.680;23.324;2023-04-08T04:01:07;95400.44;;;6.56;90.06
13027;BME280;6580;42.680;23.324;2023-04-08T04:03:52;95408.38;;;6.56;90.83
13027;BME280;6580;42.680;23.324;2023-04-08T04:06:38;95406.13;;;6.51;92.08
13027;BME280;6580;42.680;23.324;2023-04-08T04:09:25;95393.59;;;6.53;91.40
13027;BME280;6580;42.680;23.324;2023-04-08T04:12:11;95400.34;;;6.37;91.86
13027;BME280;6580;42.680;23.324;2023-04-08T04:14:58;95406.31;;;6.39;92.68
13027;BME280;6580;42.680;23.324;2023-04-08T04:20:47;95404.00;;;6.66;91.17
13027;BME280;6580;42.680;23.324;2023-04-08T04:23:33;95423.47;;;6.65;90.60
13027;BME280;6580;42.680;23.324;2023-04-08T04:26:19;95425.22;;;6.55;90.96
13027;BME280;6580;42.680;23.324;2023-04-08T04:29:04;95415.66;;;6.43;92.03
13027;BME280;6580;42.680;23.324;2023-04-08T04:31:51;95425.03;;;6.47;92.10
13027;BME280;6580;42.680;23.324;2023-04-08T04:34:37;95422.84;;;6.52;91.76
13027;BME280;6580;42.680;23.324;2023-04-08T04:37:22;95427.41;;;6.50;92.56
13027;BME280;6580;42.680;23.324;2023-04-08T04:40:09;95422.00;;;6.72;92.06
13027;BME280;6580;42.680;23.324;2023-04-08T04:42:55;95419.16;;;6.64;92.27
13027;BME280;6580;42.680;23.324;2023-04-08T04:45:40;95423.38;;;6.76;91.36
13027;BME280;6580;42.680;23.324;2023-04-08T04:48:29;95412.81;;;6.76;90.54
13027;BME280;6580;42.680;23.324;2023-04-08T04:51:15;95417.50;;;6.93;89.57
13027;BME280;6580;42.680;23.324;2023-04-08T04:54:00;95412.03;;;6.85;90.41
13027;BME280;6580;42.680;23.324;2023-04-08T04:56:46;95424.22;;;6.97;87.15
13027;BME280;6580;42.680;23.324;2023-04-08T04:59:31;95424.06;;;6.89;86.65
13027;BME280;6580;42.680;23.324;2023-04-08T05:02:17;95424.81;;;7.00;84.16
13027;BME280;6580;42.680;23.324;2023-04-08T05:05:04;95429.19;;;6.90;85.09
13027;BME280;6580;42.680;23.324;2023-04-08T05:07:49;95427.72;;;6.97;84.03
13027;BME280;6580;42.680;23.324;2023-04-08T05:10:35;95428.50;;;6.88;83.59
13027;BME280;6580;42.680;23.324;2023-04-08T05:13:21;95426.69;;;6.89;84.04
13027;BME280;6580;42.680;23.324;2023-04-08T05:16:07;95420.84;;;7.15;82.48
13027;BME280;6580;42.680;23.324;2023-04-08T05:18:52;95424.03;;;7.18;81.72
13027;BME280;6580;42.680;23.324;2023-04-08T05:21:42;95424.16;;;7.07;81.47
13027;BME280;6580;42.680;23.324;2023-04-08T05:24:27;95422.72;;;7.33;79.74
13027;BME280;6580;42.680;23.324;2023-04-08T05:27:13;95413.81;;;7.44;79.69
13027;BME280;6580;42.680;23.324;2023-04-08T05:29:58;95422.91;;;7.51;78.71
13027;BME280;6580;42.680;23.324;2023-04-08T05:32:44;95424.50;;;7.72;76.72
13027;BME280;6580;42.680;23.324;2023-04-08T05:35:29;95429.06;;;7.61;77.58
13027;BME280;6580;42.680;23.324;2023-04-08T05:38:16;95426.03;;;7.75;76.65
13027;BME280;6580;42.680;23.324;2023-04-08T05:41:02;95425.69;;;7.98;74.34
13027;BME280;6580;42.680;23.324;2023-04-08T05:43:47;95424.06;;;8.16;73.87
13027;BME280;6580;42.680;23.324;2023-04-08T05:46:33;95420.00;;;8.40;72.40
13027;BME280;6580;42.680;23.324;2023-04-08T05:49:19;95419.31;;;8.19;72.05
13027;BME280;6580;42.680;23.324;2023-04-08T05:52:04;95420.81;;;8.22;71.69
13027;BME280;6580;42.680;23.324;2023-04-08T05:54:51;95419.84;;;8.23;71.83
13027;BME280;6580;42.680;23.324;2023-04-08T05:57:36;95413.13;;;8.09;72.24
13027;BME280;6580;42.680;23.324;2023-04-08T06:00:22;95412.31;;;8.47;71.07
13027;BME280;6580;42.680;23.324;2023-04-08T06:03:09;95412.47;;;8.55;69.76
13027;BME280;6580;42.680;23.324;2023-04-08T06:05:55;95414.81;;;8.48;70.13
13027;BME280;6580;42.680;23.324;2023-04-08T06:08:40;95405.88;;;8.40;70.35
13027;BME280;6580;42.680;23.324;2023-04-08T06:11:28;95407.00;;;8.28;70.30
13027;BME280;6580;42.680;23.324;2023-04-08T06:14:13;95409.09;;;8.53;69.40
13027;BME280;6580;42.680;23.324;2023-04-08T06:16:59;95404.59;;;8.72;68.15
13027;BME280;6580;42.680;23.324;2023-04-08T06:19:45;95407.94;;;8.84;68.09
13027;BME280;6580;42.680;23.324;2023-04-08T06:22:30;95410.31;;;9.23;66.36
13027;BME280;6580;42.680;23.324;2023-04-08T06:25:15;95412.47;;;9.10;65.98
13027;BME280;6580;42.680;23.324;2023-04-08T06:28:03;95407.09;;;9.29;66.08
13027;BME280;6580;42.680;23.324;2023-04-08T06:30:49;95410.41;;;9.40;64.52
13027;BME280;6580;42.680;23.324;2023-04-08T06:33:34;95410.03;;;9.26;66.06
13027;BME280;6580;42.680;23.324;2023-04-08T06:36:20;95407.84;;;9.48;65.71
13027;BME280;6580;42.680;23.324;2023-04-08T06:39:05;95410.97;;;9.71;65.27
13027;BME280;6580;42.680;23.324;2023-04-08T06:41:51;95413.38;;;9.64;65.38
13027;BME280;6580;42.680;23.324;2023-04-08T06:44:38;95419.38;;;9.39;66.60
13027;BME280;6580;42.680;23.324;2023-04-08T06:47:24;95418.97;;;9.34;67.73
13027;BME280;6580;42.680;23.324;2023-04-08T06:50:09;95415.84;;;9.03;69.18
13027;BME280;6580;42.680;23.324;2023-04-08T06:52:55;95417.41;;;8.96;69.99
13027;BME280;6580;42.680;23.324;2023-04-08T06:55:40;95423.41;;;8.98;70.92
13027;BME280;6580;42.680;23.324;2023-04-08T06:58:26;95417.16;;;9.35;70.22
13027;BME280;6580;42.680;23.324;2023-04-08T07:01:14;95420.09;;;9.59;69.30
13027;BME280;6580;42.680;23.324;2023-04-08T07:03:59;95411.25;;;9.68;68.83
13027;BME280;6580;42.680;23.324;2023-04-08T07:06:46;95414.66;;;9.60;69.29
13027;BME280;6580;42.680;23.324;2023-04-08T07:09:32;95419.22;;;9.68;69.01
13027;BME280;6580;42.680;23.324;2023-04-08T07:12:17;95417.03;;;9.63;69.31
13027;BME280;6580;42.680;23.324;2023-04-08T07:15:12;95416.34;;;9.61;68.86
13027;BME280;6580;42.680;23.324;2023-04-08T07:17:59;95424.09;;;9.72;68.22
13027;BME280;6580;42.680;23.324;2023-04-08T07:20:49;95415.88;;;9.66;69.13
13027;BME280;6580;42.680;23.324;2023-04-08T07:23:35;95426.59;;;9.74;67.70
13027;BME280;6580;42.680;23.324;2023-04-08T07:26:21;95428.03;;;9.95;66.92
13027;BME280;6580;42.680;23.324;2023-04-08T07:29:06;95433.66;;;9.92;68.10
13027;BME280;6580;42.680;23.324;2023-04-08T07:31:51;95429.84;;;10.39;67.00
13027;BME280;6580;42.680;23.324;2023-04-08T07:34:39;95425.00;;;10.95;64.54
13027;BME280;6580;42.680;23.324;2023-04-08T07:37:25;95427.63;;;10.69;63.89
13027;BME280;6580;42.680;23.324;2023-04-08T07:40:28;95426.88;;;11.02;62.78
13027;BME280;6580;42.680;23.324;2023-04-08T07:43:14;95428.69;;;11.44;61.67
13027;BME280;6580;42.680;23.324;2023-04-08T07:46:00;95430.47;;;11.61;60.82
13027;BME280;6580;42.680;23.324;2023-04-08T07:48:47;95433.66;;;11.98;59.38
13027;BME280;6580;42.680;23.324;2023-04-08T07:51:34;95431.25;;;11.79;59.46
13027;BME280;6580;42.680;23.324;2023-04-08T07:54:19;95434.34;;;11.67;60.50
13027;BME280;6580;42.680;23.324;2023-04-08T07:57:05;95434.03;;;12.11;59.19
13027;BME280;6580;42.680;23.324;2023-04-08T07:59:50;95435.09;;;12.34;58.71
13027;BME280;6580;42.680;23.324;2023-04-08T08:02:35;95438.31;;;11.37;61.70
13027;BME280;6580;42.680;23.324;2023-04-08T08:05:21;95435.78;;;11.95;61.37
13027;BME280;6580;42.680;23.324;2023-04-08T08:08:08;95433.78;;;12.46;58.66
13027;BME280;6580;42.680;23.324;2023-04-08T08:10:54;95447.19;;;12.70;58.29
13027;BME280;6580;42.680;23.324;2023-04-08T08:13:40;95441.16;;;13.47;55.82
13027;BME280;6580;42.680;23.324;2023-04-08T08:16:27;95446.31;;;14.11;53.74
13027;BME280;6580;42.680;23.324;2023-04-08T08:19:12;95442.56;;;14.36;51.81
13027;BME280;6580;42.680;23.324;2023-04-08T08:21:58;95437.50;;;13.95;52.12
13027;BME280;6580;42.680;23.324;2023-04-08T08:24:45;95439.94;;;13.66;53.81
13027;BME280;6580;42.680;23.324;2023-04-08T08:27:30;95436.66;;;13.40;53.78
13027;BME280;6580;42.680;23.324;2023-04-08T08:30:17;95436.03;;;12.98;55.69
13027;BME280;6580;42.680;23.324;2023-04-08T08:33:04;95445.84;;;12.66;54.89
13027;BME280;6580;42.680;23.324;2023-04-08T08:35:50;95451.91;;;11.77;59.41
13027;BME280;6580;42.680;23.324;2023-04-08T08:38:35;95453.81;;;11.59;59.93
13027;BME280;6580;42.680;23.324;2023-04-08T08:41:22;95444.97;;;11.92;59.15
13027;BME280;6580;42.680;23.324;2023-04-08T08:44:09;95454.19;;;12.55;57.40
13027;BME280;6580;42.680;23.324;2023-04-08T08:46:54;95449.19;;;12.68;55.94
13027;BME280;6580;42.680;23.324;2023-04-08T08:49:41;95445.56;;;13.09;55.16
13027;BME280;6580;42.680;23.324;2023-04-08T08:52:26;95439.19;;;13.18;55.06
13027;BME280;6580;42.680;23.324;2023-04-08T08:55:11;95446.31;;;12.69;55.66
13027;BME280;6580;42.680;23.324;2023-04-08T08:57:59;95443.13;;;12.50;56.56
13027;BME280;6580;42.680;23.324;2023-04-08T09:00:44;95452.78;;;12.43;57.17
13027;BME280;6580;42.680;23.324;2023-04-08T09:03:30;95448.59;;;12.24;58.29
13027;BME280;6580;42.680;23.324;2023-04-08T09:06:17;95450.03;;;12.11;58.30
13027;BME280;6580;42.680;23.324;2023-04-08T09:09:04;95460.09;;;12.25;58.72
13027;BME280;6580;42.680;23.324;2023-04-08T09:12:02;95462.06;;;12.15;58.02
13027;BME280;6580;42.680;23.324;2023-04-08T09:14:49;95453.00;;;12.57;56.90
13027;BME280;6580;42.680;23.324;2023-04-08T09:17:36;95457.75;;;13.03;56.17
13027;BME280;6580;42.680;23.324;2023-04-08T09:20:22;95451.34;;;14.06;52.95
13027;BME280;6580;42.680;23.324;2023-04-08T09:23:08;95444.81;;;13.54;53.69
13027;BME280;6580;42.680;23.324;2023-04-08T09:26:00;95444.66;;;14.02;52.25
13027;BME280;6580;42.680;23.324;2023-04-08T09:28:59;95438.13;;;14.51;50.24
13027;BME280;6580;42.680;23.324;2023-04-08T09:31:52;95445.63;;;14.55;49.87
13027;BME280;6580;42.680;23.324;2023-04-08T09:34:38;95430.13;;;14.43;49.99
13027;BME280;6580;42.680;23.324;2023-04-08T09:37:24;95429.47;;;15.53;46.83
13027;BME280;6580;42.680;23.324;2023-04-08T09:40:10;95424.47;;;15.50;45.48
13027;BME280;6580;42.680;23.324;2023-04-08T09:42:56;95416.09;;;16.60;43.47
13027;BME280;6580;42.680;23.324;2023-04-08T09:45:44;95421.94;;;17.27;41.98
13027;BME280;6580;42.680;23.324;2023-04-08T09:48:39;95414.78;;;17.88;40.92
13027;BME280;6580;42.680;23.324;2023-04-08T09:51:31;95406.47;;;17.83;40.19
13027;BME280;6580;42.680;23.324;2023-04-08T09:54:19;95397.25;;;17.71;40.32
13027;BME280;6580;42.680;23.324;2023-04-08T09:57:13;95411.41;;;14.88;46.03
13027;BME280;6580;42.680;23.324;2023-04-08T10:00:06;95399.56;;;15.85;44.96
13027;BME280;6580;42.680;23.324;2023-04-08T10:02:55;95408.03;;;16.46;43.92
13027;BME280;6580;42.680;23.324;2023-04-08T10:05:45;95403.13;;;17.06;41.74
13027;BME280;6580;42.680;23.324;2023-04-08T10:08:31;95392.56;;;17.52;40.77
13027;BME280;6580;42.680;23.324;2023-04-08T10:11:16;95402.84;;;17.97;39.99
13027;BME280;6580;42.680;23.324;2023-04-08T10:14:02;95396.53;;;17.56;40.29
13027;BME280;6580;42.680;23.324;2023-04-08T10:16:47;95390.59;;;17.67;40.75
13027;BME280;6580;42.680;23.324;2023-04-08T10:19:37;95388.34;;;16.60;40.29
13027;BME280;6580;42.680;23.324;2023-04-08T10:22:47;95398.66;;;15.63;44.71
13027;BME280;6580;42.680;23.324;2023-04-08T10:25:33;95381.91;;;15.24;45.36
13027;BME280;6580;42.680;23.324;2023-04-08T10:28:25;95395.66;;;14.85;47.32
13027;BME280;6580;42.680;23.324;2023-04-08T10:31:21;95391.50;;;15.85;45.36
13027;BME280;6580;42.680;23.324;2023-04-08T10:34:14;95396.25;;;14.72;45.87
13027;BME280;6580;42.680;23.324;2023-04-08T10:37:00;95393.69;;;14.26;48.57
13027;BME280;6580;42.680;23.324;2023-04-08T10:39:55;95389.81;;;14.59;47.38
13027;BME280;6580;42.680;23.324;2023-04-08T10:42:41;95391.25;;;14.47;48.10
13027;BME280;6580;42.680;23.324;2023-04-08T10:45:28;95388.09;;;14.13;47.77
13027;BME280;6580;42.680;23.324;2023-04-08T10:48:14;95372.84;;;13.67;49.09
13027;BME280;6580;42.680;23.324;2023-04-08T10:51:01;95373.47;;;14.23;49.73
13027;BME280;6580;42.680;23.324;2023-04-08T10:53:48;95369.56;;;15.81;45.92
13027;BME280;6580;42.680;23.324;2023-04-08T10:56:43;95370.56;;;15.95;44.69
13027;BME280;6580;42.680;23.324;2023-04-08T10:59:30;95372.38;;;16.37;43.00
13027;BME280;6580;42.680;23.324;2023-04-08T11:02:16;95371.31;;;15.45;44.71
13027;BME280;6580;42.680;23.324;2023-04-08T11:05:01;95355.19;;;15.31;45.30
13027;BME280;6580;42.680;23.324;2023-04-08T11:07:48;95345.91;;;14.82;45.77
13027;BME280;6580;42.680;23.324;2023-04-08T11:10:36;95347.31;;;14.93;45.69
13027;BME280;6580;42.680;23.324;2023-04-08T11:13:24;95368.66;;;14.11;46.89
13027;BME280;6580;42.680;23.324;2023-04-08T11:16:10;95355.38;;;13.49;48.63
13027;BME280;6580;42.680;23.324;2023-04-08T11:18:57;95356.97;;;13.66;49.37
13027;BME280;6580;42.680;23.324;2023-04-08T11:21:46;95351.97;;;14.01;50.30
13027;BME280;6580;42.680;23.324;2023-04-08T11:24:35;95339.75;;;15.76;47.61
13027;BME280;6580;42.680;23.324;2023-04-08T11:27:21;95349.31;;;16.28;42.52
13027;BME280;6580;42.680;23.324;2023-04-08T11:30:15;95319.56;;;16.93;40.71
13027;BME280;6580;42.680;23.324;2023-04-08T11:33:00;95318.47;;;17.08;40.16
13027;BME280;6580;42.680;23.324;2023-04-08T11:35:51;95325.06;;;17.94;38.58
13027;BME280;6580;42.680;23.324;2023-04-08T11:38:38;95315.56;;;17.98;38.27
13027;BME280;6580;42.680;23.324;2023-04-08T11:41:24;95318.13;;;17.18;40.59
13027;BME280;6580;42.680;23.324;2023-04-08T11:44:29;95324.88;;;15.95;40.94
13027;BME280;6580;42.680;23.324;2023-04-08T11:47:16;95325.78;;;16.72;39.97
13027;BME280;6580;42.680;23.324;2023-04-08T11:50:22;95301.63;;;17.95;37.44
13027;BME280;6580;42.680;23.324;2023-04-08T11:53:15;95302.09;;;17.31;38.11
13027;BME280;6580;42.680;23.324;2023-04-08T11:56:19;95297.41;;;17.73;37.61
13027;BME280;6580;42.680;23.324;2023-04-08T11:59:05;95294.66;;;17.12;37.72
13027;BME280;6580;42.680;23.324;2023-04-08T12:01:51;95287.56;;;16.00;39.04
13027;BME280;6580;42.680;23.324;2023-04-08T12:04:38;95289.03;;;16.79;38.21
13027;BME280;6580;42.680;23.324;2023-04-08T12:07:24;95282.03;;;16.85;38.72
13027;BME280;6580;42.680;23.324;2023-04-08T12:10:10;95287.56;;;16.00;40.95
13027;BME280;6580;42.680;23.324;2023-04-08T12:12:55;95275.47;;;16.94;39.59
13027;BME280;6580;42.680;23.324;2023-04-08T12:15:41;95269.06;;;17.83;38.20
13027;BME280;6580;42.680;23.324;2023-04-08T12:18:26;95268.06;;;16.12;40.11
13027;BME280;6580;42.680;23.324;2023-04-08T12:21:23;95264.69;;;18.29;38.04
13027;BME280;6580;42.680;23.324;2023-04-08T12:24:08;95277.69;;;16.84;39.09
13027;BME280;6580;42.680;23.324;2023-04-08T12:26:54;95273.25;;;15.78;40.46
13027;BME280;6580;42.680;23.324;2023-04-08T12:29:39;95280.16;;;14.86;42.78
13027;BME280;6580;42.680;23.324;2023-04-08T12:32:25;95279.75;;;14.38;44.38
13027;BME280;6580;42.680;23.324;2023-04-08T12:35:10;95290.41;;;13.93;44.40
13027;BME280;6580;42.680;23.324;2023-04-08T12:37:57;95280.69;;;13.70;46.75
13027;BME280;6580;42.680;23.324;2023-04-08T12:40:42;95278.00;;;13.70;46.76
13027;BME280;6580;42.680;23.324;2023-04-08T12:43:28;95280.38;;;13.65;46.34
13027;BME280;6580;42.680;23.324;2023-04-08T12:46:16;95283.66;;;13.44;47.01
13027;BME280;6580;42.680;23.324;2023-04-08T12:49:02;95276.34;;;13.30;48.30
13027;BME280;6580;42.680;23.324;2023-04-08T12:51:48;95285.69;;;13.34;47.88
13027;BME280;6580;42.680;23.324;2023-04-08T12:54:35;95277.13;;;13.39;47.82
13027;BME280;6580;42.680;23.324;2023-04-08T12:57:21;95272.78;;;13.38;48.15
13027;BME280;6580;42.680;23.324;2023-04-08T13:00:07;95286.84;;;13.78;48.41
13027;BME280;6580;42.680;23.324;2023-04-08T13:02:56;95289.47;;;13.10;50.38
13027;BME280;6580;42.680;23.324;2023-04-08T13:05:42;95298.50;;;13.09;50.88
13027;BME280;6580;42.680;23.324;2023-04-08T13:08:28;95296.97;;;13.52;49.85
13027;BME280;6580;42.680;23.324;2023-04-08T13:11:23;95299.72;;;13.44;50.18
13027;BME280;6580;42.680;23.324;2023-04-08T13:14:08;95293.78;;;13.57;49.82
13027;BME280;6580;42.680;23.324;2023-04-08T13:16:56;95297.63;;;13.62;50.26
13027;BME280;6580;42.680;23.324;2023-04-08T13:19:42;95294.63;;;13.57;49.73
13027;BME280;6580;42.680;23.324;2023-04-08T13:22:29;95289.72;;;13.69;51.69
13027;BME280;6580;42.680;23.324;2023-04-08T13:25:18;95287.44;;;13.88;62.41
13027;BME280;6580;42.680;23.324;2023-04-08T13:28:05;95284.06;;;13.94;61.74
13027;BME280;6580;42.680;23.324;2023-04-08T13:30:51;95282.19;;;13.95;64.14
13027;BME280;6580;42.680;23.324;2023-04-08T13:33:36;95278.69;;;14.47;65.60
13027;BME280;6580;42.680;23.324;2023-04-08T13:36:22;95269.22;;;14.36;60.50
13027;BME280;6580;42.680;23.324;2023-04-08T13:39:07;95285.97;;;13.78;56.44
13027;BME280;6580;42.680;23.324;2023-04-08T13:41:53;95282.44;;;13.09;60.67
13027;BME280;6580;42.680;23.324;2023-04-08T13:44:40;95290.28;;;13.10;63.43
13027;BME280;6580;42.680;23.324;2023-04-08T13:47:26;95270.59;;;13.03;60.91
13027;BME280;6580;42.680;23.324;2023-04-08T13:50:11;95289.16;;;13.05;63.17
13027;BME280;6580;42.680;23.324;2023-04-08T13:52:57;95283.69;;;13.28;57.49
13027;BME280;6580;42.680;23.324;2023-04-08T13:55:42;95275.78;;;13.43;57.49
13027;BME280;6580;42.680;23.324;2023-04-08T13:58:28;95280.59;;;13.55;55.88
13027;BME280;6580;42.680;23.324;2023-04-08T14:01:15;95267.78;;;13.73;59.29
13027;BME280;6580;42.680;23.324;2023-04-08T14:04:00;95264.78;;;13.68;60.30
13027;BME280;6580;42.680;23.324;2023-04-08T14:06:46;95266.06;;;13.50;66.07
13027;BME280;6580;42.680;23.324;2023-04-08T14:09:33;95268.25;;;12.84;71.46
13027;BME280;6580;42.680;23.324;2023-04-08T14:12:19;95287.16;;;11.95;77.16
13027;BME280;6580;42.680;23.324;2023-04-08T14:15:06;95289.75;;;11.22;87.95
13027;BME280;6580;42.680;23.324;2023-04-08T14:17:53;95281.19;;;10.77;98.57
13027;BME280;6580;42.680;23.324;2023-04-08T14:20:38;95287.88;;;11.14;98.70
13027;BME280;6580;42.680;23.324;2023-04-08T14:23:24;95278.53;;;11.52;100.00
13027;BME280;6580;42.680;23.324;2023-04-08T14:26:09;95269.41;;;11.54;93.33
13027;BME280;6580;42.680;23.324;2023-04-08T14:28:55;95280.44;;;11.67;89.27
13027;BME280;6580;42.680;23.324;2023-04-08T14:31:41;95278.69;;;11.50;89.65
13027;BME280;6580;42.680;23.324;2023-04-08T14:34:27;95274.22;;;11.10;94.94
13027;BME280;6580;42.680;23.324;2023-04-08T14:37:13;95272.78;;;11.64;89.84
13027;BME280;6580;42.680;23.324;2023-04-08T14:40:00;95277.63;;;11.35;88.51
13027;BME280;6580;42.680;23.324;2023-04-08T14:42:46;95268.28;;;11.31;90.99
13027;BME280;6580;42.680;23.324;2023-04-08T14:45:32;95263.75;;;11.57;88.84
13027;BME280;6580;42.680;23.324;2023-04-08T14:48:18;95280.03;;;11.46;91.36
13027;BME280;6580;42.680;23.324;2023-04-08T14:51:05;95281.09;;;11.61;87.58
13027;BME280;6580;42.680;23.324;2023-04-08T14:53:50;95282.63;;;11.72;87.00
13027;BME280;6580;42.680;23.324;2023-04-08T14:56:36;95287.59;;;11.75;84.25
13027;BME280;6580;42.680;23.324;2023-04-08T14:59:21;95280.44;;;11.26;81.87
13027;BME280;6580;42.680;23.324;2023-04-08T15:02:07;95273.06;;;11.12;82.31
13027;BME280;6580;42.680;23.324;2023-04-08T15:04:52;95279.00;;;11.47;81.53
13027;BME280;6580;42.680;23.324;2023-04-08T15:07:39;95278.28;;;11.79;81.99
13027;BME280;6580;42.680;23.324;2023-04-08T15:10:24;95281.00;;;11.87;77.03